Sakura — JG5711 — position and weather

sailwx.info

Track history (hours):
 
Tides and Currents Weather Stations Pressure Air Temp Water Temp Dewpoint Dewpoint Depression Visibility Wind Speed Wind Dir Waves Ship Positions

Sakura

Last reported at 2014-Sep-22 03:33 UTC. Time now 2014-Sep-22 04:18 UTC.
Position N 35°28' E 139°40'.

Length 32 m; draft 3.6 m.

Type: Tug. MMSI: 431101178.

Date/timePositionNaut miles runAvg speedWind from/ knotsBaromVisibWave heightAir tempDewpointWater temp
2014-Sep-22 03:33N 35°28' E 139°40'0 0.0
2014-Sep-22 02:33N 35°28' E 139°40'0 0.0
2014-Sep-22 01:33N 35°28' E 139°40'0 0.0
2014-Sep-22 00:34N 35°28' E 139°40'0 0.0
2014-Sep-21 23:34N 35°28' E 139°40'1 0.7
2014-Sep-21 22:34N 35°27' E 139°41'1 1.1
2014-Sep-21 21:34N 35°27' E 139°40'0 0.0
2014-Sep-20 09:33N 35°27' E 139°40'3 2.5
2014-Sep-20 08:33N 35°27' E 139°43'1 1.1
2014-Sep-20 07:34N 35°26' E 139°43'2 1.8
2014-Sep-20 06:34N 35°27' E 139°40'4 4.1
2014-Sep-20 05:34N 35°27' E 139°45'3 3.1
2014-Sep-20 04:33N 35°29' E 139°47'2 1.5
2014-Sep-20 03:34N 35°31' E 139°46'4 3.7
2014-Sep-20 02:34N 35°28' E 139°44'3 2.7
2014-Sep-20 01:33N 35°28' E 139°41'0 0.0
2014-Sep-20 00:33N 35°28' E 139°41'0 0.0
2014-Sep-19 23:33N 35°28' E 139°41'1 0.8
2014-Sep-19 22:33N 35°28' E 139°41'4 4.0
2014-Sep-19 21:33N 35°26' E 139°45'4 4.5
2014-Sep-19 20:33N 35°27' E 139°40'0 0.0
2014-Sep-19 09:27N 35°27' E 139°40'0 0.0
2014-Sep-19 08:33N 35°27' E 139°40'1 1.3
2014-Sep-19 07:33N 35°26' E 139°41'1 0.7
2014-Sep-19 06:33N 35°26' E 139°42'2 1.9
2014-Sep-19 05:34N 35°27' E 139°40'0 0.0
2014-Sep-19 04:33N 35°27' E 139°40'0 0.0
2014-Sep-19 03:33N 35°27' E 139°40'0 0.0
2014-Sep-19 02:33N 35°27' E 139°40'0 0.0
2014-Sep-19 01:33N 35°27' E 139°40'0 0.0
2014-Sep-19 00:33N 35°27' E 139°40'0 0.0
2014-Sep-18 23:34N 35°27' E 139°40'0 0.0
2014-Sep-18 22:33N 35°27' E 139°40'2 0.1
2014-Sep-18 01:33N 35°27' E 139°42'4 3.9
2014-Sep-18 00:33N 35°24' E 139°38'1 1.5
2014-Sep-17 23:33N 35°23' E 139°40'0 0.3
2014-Sep-17 22:33N 35°24' E 139°40'3 3.3
2014-Sep-17 21:34N 35°27' E 139°42'1 0.7
2014-Sep-17 20:33N 35°26' E 139°42'4 4.4
2014-Sep-17 19:33N 35°30' E 139°44'3 2.7
2014-Sep-17 18:33N 35°28' E 139°42'0 0.0
2014-Sep-17 17:33N 35°28' E 139°42'0 0.3
2014-Sep-17 16:33N 35°28' E 139°42'1 1.1
2014-Sep-17 15:33N 35°27' E 139°42'1 1.0
2014-Sep-17 14:33N 35°27' E 139°41'1 0.9
2014-Sep-17 13:33N 35°27' E 139°42'0 0.0
2014-Sep-17 12:33N 35°27' E 139°42'1 1.3
2014-Sep-17 11:34N 35°27' E 139°41'1 1.2
2014-Sep-17 10:33N 35°27' E 139°42'2 1.9
2014-Sep-17 09:33N 35°27' E 139°40'6 5.7
2014-Sep-17 08:33N 35°30' E 139°46'1 0.5
2014-Sep-17 07:33N 35°30' E 139°47'1 0.9
2014-Sep-17 06:33N 35°31' E 139°46'2 1.7
2014-Sep-17 05:33N 35°30' E 139°48'7 7.0
2014-Sep-17 04:33N 35°27' E 139°40'0 0.5
2014-Sep-17 03:33N 35°27' E 139°39'0 0.0
2014-Sep-17 02:33N 35°27' E 139°39'1 1.4
2014-Sep-17 01:33N 35°26' E 139°41'1 1.3
2014-Sep-17 00:33N 35°27' E 139°40'0 0.0
2014-Sep-16 23:33N 35°27' E 139°40'0 0.0
2014-Sep-16 07:09N 35°27' E 139°40'0 0.0
2014-Sep-16 06:33N 35°27' E 139°40'0 0.0
2014-Sep-16 05:34N 35°27' E 139°40'0 0.0
2014-Sep-16 04:34N 35°27' E 139°40'0 0.0
2014-Sep-16 03:34N 35°27' E 139°40'0 0.0
2014-Sep-16 02:34N 35°27' E 139°40'0 0.0
2014-Sep-16 01:34N 35°27' E 139°40'1 0.7
2014-Sep-16 00:34N 35°28' E 139°40'3 2.6
2014-Sep-15 23:33N 35°27' E 139°43'0 0.5
2014-Sep-15 22:33N 35°27' E 139°43'1 1.3
2014-Sep-15 21:34N 35°27' E 139°41'1 1.2
2014-Sep-15 20:33N 35°27' E 139°40'0 0.0
2014-Sep-15 08:13N 35°27' E 139°40'0 0.0
2014-Sep-15 07:34N 35°27' E 139°40'0 0.2
2014-Sep-15 06:34N 35°27' E 139°40'1 1.2
2014-Sep-15 05:33N 35°28' E 139°40'1 0.5
2014-Sep-15 04:33N 35°28' E 139°40'0 0.0
2014-Sep-15 03:33N 35°28' E 139°40'0 0.0
2014-Sep-15 02:33N 35°28' E 139°40'0 0.0
2014-Sep-15 01:33N 35°28' E 139°40'0 0.0
2014-Sep-15 00:33N 35°28' E 139°40'1 0.5
2014-Sep-14 23:33N 35°28' E 139°40'3 3.0
2014-Sep-14 22:33N 35°27' E 139°44'3 3.5
2014-Sep-14 21:33N 35°27' E 139°40'1 0.0
2014-Sep-14 08:14N 35°27' E 139°40'1 1.4
2014-Sep-14 07:34N 35°27' E 139°41'1 0.9
2014-Sep-14 06:33N 35°28' E 139°40'1 1.0
2014-Sep-14 05:33N 35°27' E 139°40'1 1.0
2014-Sep-14 04:33N 35°28' E 139°40'0 0.0
2014-Sep-14 03:33N 35°28' E 139°40'0 0.0
2014-Sep-14 02:33N 35°28' E 139°40'6 5.7
2014-Sep-14 01:33N 35°31' E 139°46'7 1.7
2014-Sep-13 21:33N 35°27' E 139°40'1 0.0
2014-Sep-12 23:34N 35°27' E 139°41'3 2.8
2014-Sep-12 22:34N 35°26' E 139°44'4 3.9
2014-Sep-12 21:33N 35°27' E 139°39'2 1.8
2014-Sep-12 20:33N 35°27' E 139°42'1 0.8
2014-Sep-12 19:34N 35°26' E 139°42'0 0.0
2014-Sep-12 18:34N 35°26' E 139°42'0 0.0
2014-Sep-12 17:33N 35°26' E 139°42'0 0.0
2014-Sep-12 16:33N 35°26' E 139°42'1 1.4
2014-Sep-12 15:34N 35°27' E 139°40'1 0.8
2014-Sep-12 14:34N 35°27' E 139°39'3 3.3
2014-Sep-12 13:33N 35°24' E 139°41'2 2.0
2014-Sep-12 12:34N 35°22' E 139°42'2 1.8
2014-Sep-12 11:34N 35°23' E 139°40'3 2.6
2014-Sep-12 10:34N 35°25' E 139°42'3 2.8
2014-Sep-12 09:33N 35°27' E 139°39'2 1.8
2014-Sep-12 08:33N 35°27' E 139°42'1 1.0
2014-Sep-12 07:33N 35°27' E 139°40'0 0.2
2014-Sep-12 06:33N 35°27' E 139°40'1 0.9
2014-Sep-12 05:33N 35°28' E 139°40'0 0.0
2014-Sep-12 04:33N 35°28' E 139°40'0 0.0
2014-Sep-12 03:33N 35°28' E 139°40'  
Track history (hours):
 
Tides and Currents Weather Stations Pressure Air Temp Water Temp Dewpoint Dewpoint Depression Visibility Wind Speed Wind Dir Waves Ship Positions

Sakura

Last reported at 2014-Sep-22 03:33 UTC. Time now 2014-Sep-22 04:18 UTC.
Position N 35°28' E 139°40'.

Length 32 m; draft 3.6 m.

Type: Tug. MMSI: 431101178.

Date/timePositionNaut miles runAvg speedWind from/ knotsBaromVisibWave heightAir tempDewpointWater temp
2014-Sep-22 03:33N 35°28' E 139°40'0 0.0
2014-Sep-22 02:33N 35°28' E 139°40'0 0.0
2014-Sep-22 01:33N 35°28' E 139°40'0 0.0
2014-Sep-22 00:34N 35°28' E 139°40'0 0.0
2014-Sep-21 23:34N 35°28' E 139°40'1 0.7
2014-Sep-21 22:34N 35°27' E 139°41'1 1.1
2014-Sep-21 21:34N 35°27' E 139°40'0 0.0
2014-Sep-20 09:33N 35°27' E 139°40'3 2.5
2014-Sep-20 08:33N 35°27' E 139°43'1 1.1
2014-Sep-20 07:34N 35°26' E 139°43'2 1.8
2014-Sep-20 06:34N 35°27' E 139°40'4 4.1
2014-Sep-20 05:34N 35°27' E 139°45'3 3.1
2014-Sep-20 04:33N 35°29' E 139°47'2 1.5
2014-Sep-20 03:34N 35°31' E 139°46'4 3.7
2014-Sep-20 02:34N 35°28' E 139°44'3 2.7
2014-Sep-20 01:33N 35°28' E 139°41'0 0.0
2014-Sep-20 00:33N 35°28' E 139°41'0 0.0
2014-Sep-19 23:33N 35°28' E 139°41'1 0.8
2014-Sep-19 22:33N 35°28' E 139°41'4 4.0
2014-Sep-19 21:33N 35°26' E 139°45'4 4.5
2014-Sep-19 20:33N 35°27' E 139°40'0 0.0
2014-Sep-19 09:27N 35°27' E 139°40'0 0.0
2014-Sep-19 08:33N 35°27' E 139°40'1 1.3
2014-Sep-19 07:33N 35°26' E 139°41'1 0.7
2014-Sep-19 06:33N 35°26' E 139°42'2 1.9
2014-Sep-19 05:34N 35°27' E 139°40'0 0.0
2014-Sep-19 04:33N 35°27' E 139°40'0 0.0
2014-Sep-19 03:33N 35°27' E 139°40'0 0.0
2014-Sep-19 02:33N 35°27' E 139°40'0 0.0
2014-Sep-19 01:33N 35°27' E 139°40'0 0.0
2014-Sep-19 00:33N 35°27' E 139°40'0 0.0
2014-Sep-18 23:34N 35°27' E 139°40'0 0.0
2014-Sep-18 22:33N 35°27' E 139°40'2 0.1
2014-Sep-18 01:33N 35°27' E 139°42'4 3.9
2014-Sep-18 00:33N 35°24' E 139°38'1 1.5
2014-Sep-17 23:33N 35°23' E 139°40'0 0.3
2014-Sep-17 22:33N 35°24' E 139°40'3 3.3
2014-Sep-17 21:34N 35°27' E 139°42'1 0.7
2014-Sep-17 20:33N 35°26' E 139°42'4 4.4
2014-Sep-17 19:33N 35°30' E 139°44'3 2.7
2014-Sep-17 18:33N 35°28' E 139°42'0 0.0
2014-Sep-17 17:33N 35°28' E 139°42'0 0.3
2014-Sep-17 16:33N 35°28' E 139°42'1 1.1
2014-Sep-17 15:33N 35°27' E 139°42'1 1.0
2014-Sep-17 14:33N 35°27' E 139°41'1 0.9
2014-Sep-17 13:33N 35°27' E 139°42'0 0.0
2014-Sep-17 12:33N 35°27' E 139°42'1 1.3
2014-Sep-17 11:34N 35°27' E 139°41'1 1.2
2014-Sep-17 10:33N 35°27' E 139°42'2 1.9
2014-Sep-17 09:33N 35°27' E 139°40'6 5.7
2014-Sep-17 08:33N 35°30' E 139°46'1 0.5
2014-Sep-17 07:33N 35°30' E 139°47'1 0.9
2014-Sep-17 06:33N 35°31' E 139°46'2 1.7
2014-Sep-17 05:33N 35°30' E 139°48'7 7.0
2014-Sep-17 04:33N 35°27' E 139°40'0 0.5
2014-Sep-17 03:33N 35°27' E 139°39'0 0.0
2014-Sep-17 02:33N 35°27' E 139°39'1 1.4
2014-Sep-17 01:33N 35°26' E 139°41'1 1.3
2014-Sep-17 00:33N 35°27' E 139°40'0 0.0
2014-Sep-16 23:33N 35°27' E 139°40'0 0.0
2014-Sep-16 07:09N 35°27' E 139°40'0 0.0
2014-Sep-16 06:33N 35°27' E 139°40'0 0.0
2014-Sep-16 05:34N 35°27' E 139°40'0 0.0
2014-Sep-16 04:34N 35°27' E 139°40'0 0.0
2014-Sep-16 03:34N 35°27' E 139°40'0 0.0
2014-Sep-16 02:34N 35°27' E 139°40'0 0.0
2014-Sep-16 01:34N 35°27' E 139°40'1 0.7
2014-Sep-16 00:34N 35°28' E 139°40'3 2.6
2014-Sep-15 23:33N 35°27' E 139°43'0 0.5
2014-Sep-15 22:33N 35°27' E 139°43'1 1.3
2014-Sep-15 21:34N 35°27' E 139°41'1 1.2
2014-Sep-15 20:33N 35°27' E 139°40'0 0.0
2014-Sep-15 08:13N 35°27' E 139°40'0 0.0
2014-Sep-15 07:34N 35°27' E 139°40'0 0.2
2014-Sep-15 06:34N 35°27' E 139°40'1 1.2
2014-Sep-15 05:33N 35°28' E 139°40'1 0.5
2014-Sep-15 04:33N 35°28' E 139°40'0 0.0
2014-Sep-15 03:33N 35°28' E 139°40'0 0.0
2014-Sep-15 02:33N 35°28' E 139°40'0 0.0
2014-Sep-15 01:33N 35°28' E 139°40'0 0.0
2014-Sep-15 00:33N 35°28' E 139°40'1 0.5
2014-Sep-14 23:33N 35°28' E 139°40'3 3.0
2014-Sep-14 22:33N 35°27' E 139°44'3 3.5
2014-Sep-14 21:33N 35°27' E 139°40'1 0.0
2014-Sep-14 08:14N 35°27' E 139°40'1 1.4
2014-Sep-14 07:34N 35°27' E 139°41'1 0.9
2014-Sep-14 06:33N 35°28' E 139°40'1 1.0
2014-Sep-14 05:33N 35°27' E 139°40'1 1.0
2014-Sep-14 04:33N 35°28' E 139°40'0 0.0
2014-Sep-14 03:33N 35°28' E 139°40'0 0.0
2014-Sep-14 02:33N 35°28' E 139°40'6 5.7
2014-Sep-14 01:33N 35°31' E 139°46'7 1.7
2014-Sep-13 21:33N 35°27' E 139°40'1 0.0
2014-Sep-12 23:34N 35°27' E 139°41'3 2.8
2014-Sep-12 22:34N 35°26' E 139°44'4 3.9
2014-Sep-12 21:33N 35°27' E 139°39'2 1.8
2014-Sep-12 20:33N 35°27' E 139°42'1 0.8
2014-Sep-12 19:34N 35°26' E 139°42'0 0.0
2014-Sep-12 18:34N 35°26' E 139°42'0 0.0
2014-Sep-12 17:33N 35°26' E 139°42'0 0.0
2014-Sep-12 16:33N 35°26' E 139°42'1 1.4
2014-Sep-12 15:34N 35°27' E 139°40'1 0.8
2014-Sep-12 14:34N 35°27' E 139°39'3 3.3
2014-Sep-12 13:33N 35°24' E 139°41'2 2.0
2014-Sep-12 12:34N 35°22' E 139°42'2 1.8
2014-Sep-12 11:34N 35°23' E 139°40'3 2.6
2014-Sep-12 10:34N 35°25' E 139°42'3 2.8
2014-Sep-12 09:33N 35°27' E 139°39'2 1.8
2014-Sep-12 08:33N 35°27' E 139°42'1 1.0
2014-Sep-12 07:33N 35°27' E 139°40'0 0.2
2014-Sep-12 06:33N 35°27' E 139°40'1 0.9
2014-Sep-12 05:33N 35°28' E 139°40'0 0.0
2014-Sep-12 04:33N 35°28' E 139°40'0 0.0
2014-Sep-12 03:33N 35°28' E 139°40'  

Dump ship's entire track history